Time;durP1;ratioP1;P1;durP2;ratioP2;P2;SDS_P1;SDS_P2;PMS_P1;PMS_P2;Temp;Humidity;BMP_temperature;BMP_pressure;BME280_temperature;BME280_humidity;BME280_pressure;Samples;Min_cycle;Max_cycle;Signal;HPM_P1;HPM_P2
2022/08/18 00:02:24;;;;;;;11.13;10.38;;;26.60;55.80;27.50;100465.00;;;;5026049;28;20179;-44
2022/08/18 00:04:50;;;;;;;11.57;10.77;;;26.60;55.70;27.50;100467.00;;;;5040728;28;20170;-45
2022/08/18 00:07:26;;;;;;;12.23;11.23;;;26.50;55.90;27.50;100464.00;;;;5040704;28;20187;-44
2022/08/18 00:09:52;;;;;;;12.57;11.57;;;26.50;56.00;27.40;100463.00;;;;5025693;28;20179;-44
2022/08/18 00:12:29;;;;;;;11.82;11.02;;;26.50;56.10;27.40;100461.00;;;;5025623;28;20178;-45
2022/08/18 00:14:55;;;;;;;12.50;11.50;;;26.50;56.10;27.40;100463.00;;;;5025835;28;20220;-44
2022/08/18 00:17:21;;;;;;;12.77;11.77;;;26.50;56.30;27.40;100463.00;;;;5040798;28;20213;-44
2022/08/18 00:19:47;;;;;;;13.35;12.35;;;26.50;56.30;27.40;100469.00;;;;5025411;28;20233;-44
2022/08/18 00:22:16;;;;;;;12.77;11.77;;;26.40;56.40;27.30;100471.00;;;;5025625;28;20195;-44
2022/08/18 00:24:49;;;;;;;12.48;11.57;;;26.40;56.30;27.30;100464.00;;;;5025577;28;20242;-43
2022/08/18 00:27:26;;;;;;;12.30;11.40;;;26.40;56.40;27.30;100461.00;;;;5040434;28;20214;-44
2022/08/18 00:29:53;;;;;;;12.07;11.23;;;26.30;56.40;27.20;100463.00;;;;5025562;28;20167;-44
2022/08/18 00:32:24;;;;;;;12.43;11.50;;;26.30;56.20;27.30;100455.00;;;;5040721;28;20167;-44
2022/08/18 00:34:51;;;;;;;11.80;10.90;;;26.30;56.10;27.20;100457.00;;;;5025480;28;20272;-44
2022/08/18 00:37:17;;;;;;;12.75;11.75;;;26.30;56.10;27.20;100459.00;;;;5040348;28;20422;-45
2022/08/18 00:39:43;;;;;;;13.80;12.70;;;26.30;56.90;27.20;100454.00;;;;5025287;28;20194;-44
2022/08/18 00:42:18;;;;;;;12.88;11.88;;;26.30;56.50;27.20;100446.00;;;;5025177;28;20167;-44
2022/08/18 00:44:44;;;;;;;12.45;11.55;;;26.30;56.30;27.20;100442.00;;;;5025103;28;20155;-44
2022/08/18 00:47:10;;;;;;;13.00;12.05;;;26.30;56.30;27.10;100462.00;;;;5025081;28;20279;-44
2022/08/18 00:49:37;;;;;;;13.55;12.55;;;26.20;56.40;27.10;100439.00;;;;5025391;28;20198;-44
2022/08/18 00:52:03;;;;;;;13.73;12.70;;;26.20;56.50;27.10;100443.00;;;;5040542;28;20172;-44
2022/08/18 00:54:30;;;;;;;14.45;13.30;;;26.20;56.70;27.10;100421.00;;;;5040346;28;20210;-44
2022/08/18 00:57:05;;;;;;;13.93;12.77;;;26.20;56.80;27.10;100437.00;;;;5040521;28;20191;-44
2022/08/18 00:59:42;;;;;;;12.65;11.75;;;26.20;56.80;27.00;100445.00;;;;5040225;28;20559;-43
2022/08/18 01:02:22;;;;;;;12.40;11.50;;;26.20;56.60;27.00;100425.00;;;;5040671;28;20167;-44
2022/08/18 01:04:56;;;;;;;12.25;11.35;;;26.20;56.50;27.00;100431.00;;;;5039002;28;20936;-45
2022/08/18 01:07:34;;;;;;;13.38;12.35;;;26.20;56.50;27.00;100420.00;;;;5039624;28;20190;-44
2022/08/18 01:10:07;;;;;;;13.57;12.52;;;26.10;56.80;27.00;100436.00;;;;5039582;28;20186;-45
2022/08/18 01:12:33;;;;;;;12.15;11.25;;;26.10;56.70;26.90;100441.00;;;;5027314;28;20167;-45
2022/08/18 01:14:59;;;;;;;12.48;11.63;;;26.10;56.50;26.90;100448.00;;;;5028572;28;20180;-44
2022/08/18 01:23:11;;;;;;;13.32;12.32;;;26.00;56.60;26.90;100446.00;;;;5041195;28;20186;-44
2022/08/18 01:28:22;;;;;;;12.90;11.80;;;26.00;56.50;26.80;100450.00;;;;5041475;28;20838;-43
2022/08/18 01:30:50;;;;;;;13.38;12.38;;;26.00;56.40;26.80;100449.00;;;;5028304;28;20837;-45
2022/08/18 01:33:17;;;;;;;14.07;12.90;;;26.00;56.40;26.80;100456.00;;;;5028233;28;20187;-44
2022/08/18 01:35:48;;;;;;;16.23;14.93;;;26.00;56.40;26.80;100458.00;;;;5043448;28;20178;-43
2022/08/18 01:38:17;;;;;;;13.65;12.65;;;25.90;56.50;26.80;100402.00;;;;5042434;28;20400;-43
2022/08/18 01:40:44;;;;;;;14.27;13.07;;;25.90;56.40;26.80;100451.00;;;;5027956;28;20199;-43
2022/08/18 01:43:11;;;;;;;14.50;13.50;;;25.90;56.60;26.70;100464.00;;;;5027904;28;20179;-46
2022/08/18 01:45:37;;;;;;;14.13;13.00;;;25.90;56.40;26.70;100393.00;;;;5027908;28;20171;-45
2022/08/18 01:48:03;;;;;;;14.30;13.20;;;25.80;56.40;26.70;100462.00;;;;5027774;28;20187;-45
2022/08/18 01:50:30;;;;;;;14.57;13.45;;;25.80;56.50;26.60;100463.00;;;;5027939;28;20696;-44
2022/08/18 01:52:56;;;;;;;13.95;12.95;;;25.70;56.60;26.60;100468.00;;;;5027833;28;20641;-44
2022/08/18 01:55:21;;;;;;;13.90;12.60;;;25.70;56.70;26.60;100453.00;;;;5027677;28;20195;-45
2022/08/18 01:57:47;;;;;;;12.27;11.38;;;25.70;56.40;26.60;100461.00;;;;5027526;28;20206;-44
2022/08/18 02:00:15;;;;;;;13.77;12.73;;;25.70;56.40;26.50;100470.00;;;;5042655;28;20226;-45
2022/08/18 02:02:41;;;;;;;13.95;12.90;;;25.70;56.50;26.50;100469.00;;;;5027580;28;20240;-45
2022/08/18 02:05:18;;;;;;;13.63;12.52;;;25.60;56.70;26.50;100476.00;;;;5043060;28;20547;-44
2022/08/18 02:07:44;;;;;;;13.95;12.93;;;25.50;56.80;26.50;100476.00;;;;5042491;28;20669;-44
2022/08/18 02:10:10;;;;;;;13.43;12.52;;;25.50;56.80;26.40;100465.00;;;;5027193;28;20206;-44
2022/08/18 02:12:37;;;;;;;13.73;12.52;;;25.50;56.70;26.40;100465.00;;;;5027427;28;20518;-45
2022/08/18 02:15:04;;;;;;;13.75;12.75;;;25.50;56.80;26.40;100454.00;;;;5027239;28;20171;-45
2022/08/18 02:17:39;;;;;;;12.93;12.02;;;25.50;56.80;26.40;100460.00;;;;5027140;28;20214;-44
2022/08/18 02:20:07;;;;;;;13.38;12.38;;;25.50;56.80;26.30;100452.00;;;;5027202;28;20240;-44
2022/08/18 02:22:33;;;;;;;13.45;12.27;;;25.50;56.90;26.30;100461.00;;;;5026698;28;20182;-44
2022/08/18 02:24:58;;;;;;;14.05;12.95;;;25.40;56.80;26.30;100473.00;;;;5042663;28;20167;-45
2022/08/18 02:27:26;;;;;;;13.60;12.60;;;25.40;57.10;26.30;100456.00;;;;5027202;28;20187;-44
2022/08/18 02:29:51;;;;;;;13.48;12.50;;;25.40;57.00;26.20;100452.00;;;;5027196;28;20199;-45
2022/08/18 02:32:17;;;;;;;12.88;11.88;;;25.40;56.70;26.30;100450.00;;;;5027070;28;20202;-45
2022/08/18 02:34:43;;;;;;;13.00;12.00;;;25.40;56.70;26.30;100445.00;;;;5027053;28;20178;-44
2022/08/18 02:37:10;;;;;;;13.27;12.27;;;25.40;56.70;26.00;100449.00;;;;5026811;28;20283;-44
2022/08/18 02:39:36;;;;;;;13.38;12.25;;;25.40;56.90;26.20;100458.00;;;;5026875;28;20714;-44
2022/08/18 02:42:06;;;;;;;13.60;12.60;;;25.40;56.90;26.20;100449.00;;;;5027029;28;20167;-44
2022/08/18 02:44:32;;;;;;;14.15;13.05;;;25.30;57.10;26.20;100457.00;;;;5026779;28;20186;-44
2022/08/18 02:46:58;;;;;;;14.27;13.18;;;25.30;57.10;26.20;100459.00;;;;5026788;28;20696;-44
2022/08/18 02:49:24;;;;;;;12.75;11.85;;;25.20;57.30;26.20;100461.00;;;;5026935;28;20175;-45
2022/08/18 02:51:51;;;;;;;13.25;12.25;;;25.30;57.40;26.10;100452.00;;;;5027359;28;20183;-44
2022/08/18 02:54:19;;;;;;;12.85;11.90;;;25.30;57.40;26.10;100454.00;;;;5027026;28;20171;-45
2022/08/18 02:56:45;;;;;;;12.18;11.15;;;25.30;57.10;26.10;100451.00;;;;5027017;28;20171;-44
2022/08/18 02:59:13;;;;;;;12.40;11.50;;;25.30;56.90;26.10;100443.00;;;;5026660;28;20167;-44
2022/08/18 03:01:42;;;;;;;11.70;10.70;;;25.30;56.70;26.10;100436.00;;;;5026864;28;20202;-43
2022/08/18 03:04:10;;;;;;;13.98;12.98;;;25.30;56.70;26.10;100438.00;;;;5026645;28;20302;-44
2022/08/18 03:06:36;;;;;;;14.75;13.63;;;25.20;57.20;26.10;100437.00;;;;5026487;28;20171;-44
2022/08/18 03:09:04;;;;;;;14.52;13.43;;;25.20;57.50;26.00;100437.00;;;;5026305;28;20240;-44
2022/08/18 03:11:30;;;;;;;14.45;13.35;;;25.10;57.50;26.00;100446.00;;;;5026646;28;20179;-44
2022/08/18 03:13:56;;;;;;;15.18;14.07;;;25.10;57.60;26.00;100448.00;;;;5026699;28;20174;-44
2022/08/18 03:16:23;;;;;;;15.30;14.10;;;25.10;58.10;26.00;100447.00;;;;5026345;28;20845;-44
2022/08/18 03:18:49;;;;;;;15.07;13.90;;;25.10;57.80;26.00;100442.00;;;;5026285;28;20289;-44
2022/08/18 03:21:21;;;;;;;14.60;13.40;;;25.10;58.10;26.00;100452.00;;;;5024322;28;20206;-44
2022/08/18 03:23:49;;;;;;;14.15;13.10;;;25.10;57.90;26.00;100450.00;;;;5026257;28;20241;-44
2022/08/18 03:26:16;;;;;;;13.40;12.40;;;25.10;57.80;25.90;100453.00;;;;5041435;28;20167;-44
2022/08/18 03:28:45;;;;;;;14.20;13.10;;;25.10;57.80;25.90;100443.00;;;;5025926;28;20191;-44
2022/08/18 03:31:12;;;;;;;16.50;13.40;;;25.20;57.60;25.90;100447.00;;;;5041641;28;20684;-44
2022/08/18 03:33:37;;;;;;;14.70;13.50;;;25.10;57.90;25.90;100440.00;;;;5041182;28;20182;-44
2022/08/18 03:36:12;;;;;;;13.32;12.07;;;25.10;57.90;25.90;100448.00;;;;5026296;28;20182;-44
2022/08/18 03:38:39;;;;;;;25.75;23.35;;;25.10;57.70;25.90;100446.00;;;;5026223;28;20194;-45
2022/08/18 03:41:12;;;;;;;24.00;21.90;;;25.10;58.70;25.90;100448.00;;;;5025928;28;20294;-44
2022/08/18 03:43:38;;;;;;;20.08;18.48;;;25.00;59.30;25.90;100442.00;;;;5041491;28;20174;-44
2022/08/18 03:46:06;;;;;;;22.35;20.50;;;25.00;59.00;25.80;100442.00;;;;5025964;28;20646;-44
2022/08/18 03:48:34;;;;;;;25.95;23.55;;;24.80;59.10;25.80;100448.00;;;;5025850;28;20205;-44
2022/08/18 03:51:13;;;;;;;25.50;23.30;;;24.80;59.70;25.80;100451.00;;;;5025682;28;20175;-44
2022/08/18 03:53:39;;;;;;;27.08;24.65;;;24.80;59.80;25.70;100460.00;;;;5041172;28;20216;-44
2022/08/18 03:56:14;;;;;;;24.60;22.40;;;24.80;59.90;25.70;100464.00;;;;5025746;28;20178;-45
2022/08/18 03:58:51;;;;;;;24.90;22.50;;;24.90;59.50;25.70;100465.00;;;;5040634;28;20497;-45
2022/08/18 04:01:19;;;;;;;26.35;23.88;;;24.90;59.80;25.70;100470.00;;;;5026036;28;20186;-45
2022/08/18 04:03:50;;;;;;;26.08;23.67;;;24.90;60.10;25.70;100474.00;;;;5025491;28;20314;-44
2022/08/18 04:06:28;;;;;;;25.95;23.58;;;24.90;60.80;25.70;100470.00;;;;5025624;28;20167;-45
2022/08/18 04:08:55;;;;;;;27.30;24.75;;;24.90;60.00;25.70;100463.00;;;;5025389;28;20191;-44
2022/08/18 04:11:21;;;;;;;26.10;23.63;;;24.90;59.90;25.70;100465.00;;;;5025409;28;20175;-45
2022/08/18 04:13:47;;;;;;;25.70;23.30;;;24.90;59.70;25.70;100462.00;;;;5025694;28;20171;-44
2022/08/18 04:16:13;;;;;;;29.73;26.80;;;24.90;59.50;25.70;100459.00;;;;5025355;28;20271;-44
2022/08/18 04:18:38;;;;;;;35.45;32.05;;;24.90;59.80;25.70;100460.00;;;;5024024;28;20614;-44
2022/08/18 04:21:07;;;;;;;34.63;31.27;;;24.80;60.80;25.70;100465.00;;;;5023039;28;20209;-44
2022/08/18 04:23:35;;;;;;;35.63;32.38;;;24.70;61.60;25.60;100450.00;;;;5025209;28;20177;-43
2022/08/18 04:26:00;;;;;;;32.85;29.85;;;24.70;61.70;25.60;100458.00;;;;5025373;28;20155;-44
2022/08/18 04:28:27;;;;;;;33.47;30.13;;;24.80;61.20;25.60;100461.00;;;;5025199;28;20492;-43
2022/08/18 04:30:53;;;;;;;31.88;28.88;;;24.80;60.90;25.60;100465.00;;;;5024698;28;20769;-43
2022/08/18 04:33:19;;;;;;;31.30;28.35;;;24.80;60.70;25.60;100466.00;;;;5025032;28;20683;-43
2022/08/18 04:35:45;;;;;;;30.25;27.42;;;24.80;60.40;25.60;100466.00;;;;5025175;28;20190;-44
2022/08/18 04:38:12;;;;;;;29.15;26.42;;;24.80;60.70;25.60;100472.00;;;;5024939;28;20277;-44
2022/08/18 04:40:40;;;;;;;30.88;27.85;;;24.80;60.80;25.60;100468.00;;;;5024484;28;20203;-43
2022/08/18 04:43:10;;;;;;;33.75;30.45;;;24.70;60.90;25.60;100480.00;;;;5025319;28;20183;-43
2022/08/18 04:45:38;;;;;;;34.00;30.70;;;24.70;61.20;25.60;100480.00;;;;5026358;28;20206;-43
2022/08/18 04:48:05;;;;;;;35.42;31.92;;;24.70;61.10;25.60;100498.00;;;;5028739;28;20191;-43
2022/08/18 04:50:31;;;;;;;37.58;33.67;;;24.80;60.90;25.60;100496.00;;;;5028536;28;20179;-43
2022/08/18 04:55:47;;;;;;;38.83;34.92;;;24.70;62.30;25.50;100492.00;;;;5028629;28;20170;-45
2022/08/18 04:58:14;;;;;;;36.83;33.17;;;24.70;62.40;25.50;100420.00;;;;5028457;28;20274;-43
2022/08/18 05:00:42;;;;;;;38.38;34.58;;;24.70;61.80;25.50;100484.00;;;;5027874;28;20226;-45
2022/08/18 05:03:08;;;;;;;38.25;34.40;;;24.70;62.30;25.50;100485.00;;;;5028667;28;20174;-44
2022/08/18 05:05:34;;;;;;;38.37;34.43;;;24.70;62.40;25.50;100492.00;;;;5028813;28;20194;-43
2022/08/18 05:08:00;;;;;;;38.50;34.60;;;24.60;62.80;25.50;100493.00;;;;5043947;28;20306;-44
2022/08/18 05:10:26;;;;;;;39.30;35.30;;;24.60;62.90;25.40;100487.00;;;;5027898;28;20268;-44
2022/08/18 05:12:51;;;;;;;35.90;32.30;;;24.60;63.70;25.40;100482.00;;;;5028466;28;20211;-44
2022/08/18 05:15:17;;;;;;;33.17;29.97;;;24.50;64.20;25.40;100488.00;;;;5028128;28;20308;-44
2022/08/18 05:17:44;;;;;;;32.27;29.17;;;24.40;64.20;25.30;100495.00;;;;5027914;28;20201;-44
2022/08/18 05:20:10;;;;;;;31.43;28.47;;;24.40;64.70;25.30;100493.00;;;;5027281;28;20199;-44
2022/08/18 05:22:40;;;;;;;31.70;28.67;;;24.30;64.90;25.30;100501.00;;;;5042852;28;20244;-44
2022/08/18 05:25:09;;;;;;;38.57;34.67;;;24.40;65.10;25.20;100497.00;;;;5028112;28;20178;-44
2022/08/18 05:27:38;;;;;;;43.67;39.07;;;24.30;65.60;25.20;100504.00;;;;5027630;28;20202;-44
2022/08/18 05:30:06;;;;;;;46.73;41.63;;;24.20;65.30;25.20;100494.00;;;;5027810;28;20679;-44
2022/08/18 05:32:42;;;;;;;48.57;42.03;;;24.20;65.70;25.20;100500.00;;;;5028064;28;20206;-44
2022/08/18 05:35:22;;;;;;;48.30;42.67;;;24.20;65.70;25.20;100502.00;;;;5027471;28;20242;-44
2022/08/18 05:38:01;;;;;;;46.37;40.63;;;24.20;65.40;25.20;100488.00;;;;5043117;28;20202;-44
2022/08/18 05:40:28;;;;;;;47.93;42.07;;;24.30;64.90;25.20;100501.00;;;;5044019;28;20665;-44
2022/08/18 05:42:56;;;;;;;46.70;41.77;;;24.30;64.40;25.20;100509.00;;;;5031873;28;20250;-43
2022/08/18 05:45:21;;;;;;;48.80;42.83;;;24.40;64.40;25.20;100510.00;;;;5046368;28;20189;-44
2022/08/18 05:47:48;;;;;;;46.60;41.57;;;24.40;64.70;25.20;100511.00;;;;5042722;28;20203;-44
2022/08/18 05:50:18;;;;;;;47.23;40.23;;;24.40;63.90;25.20;100506.00;;;;5027078;28;20175;-44
2022/08/18 05:53:08;;;;;;;42.97;37.97;;;24.50;63.30;25.20;100493.00;;;;5043005;28;20299;-44
2022/08/18 05:58:42;;;;;;;38.30;34.20;;;24.50;62.20;25.20;100504.00;;;;5036538;28;20213;-44
2022/08/18 06:01:18;;;;;;;42.07;36.73;;;24.50;62.70;25.20;100515.00;;;;5039672;28;20298;-44
2022/08/18 06:03:48;;;;;;;41.67;37.17;;;24.50;63.30;25.20;100506.00;;;;5027307;28;20171;-44
2022/08/18 06:06:20;;;;;;;38.80;34.67;;;24.50;62.90;25.20;100511.00;;;;5022488;28;20267;-44
2022/08/18 06:09:22;;;;;;;39.87;35.40;;;24.50;62.50;25.30;100513.00;;;;5021847;28;20191;-44
2022/08/18 06:11:49;;;;;;;37.15;33.20;;;24.60;62.60;25.20;100522.00;;;;5005363;28;20585;-44
2022/08/18 06:14:15;;;;;;;35.80;32.00;;;24.60;62.70;25.30;100524.00;;;;5023925;28;20195;-44
2022/08/18 06:17:09;;;;;;;34.60;31.07;;;24.60;62.50;25.30;100515.00;;;;5025698;28;20266;-44
2022/08/18 06:20:08;;;;;;;38.57;34.47;;;24.60;61.90;25.30;100528.00;;;;5006705;28;20199;-44
2022/08/18 06:23:16;;;;;;;38.67;34.57;;;24.50;62.80;25.30;100534.00;;;;5022255;28;20851;-44
2022/08/18 06:26:21;;;;;;;34.90;31.10;;;24.60;62.60;25.20;100534.00;;;;5013859;28;20616;-44
2022/08/18 06:29:23;;;;;;;35.67;31.98;;;24.60;62.10;25.20;100526.00;;;;4968344;28;20204;-44
2022/08/18 06:32:21;;;;;;;34.87;31.17;;;24.60;61.90;25.20;100541.00;;;;4991721;28;20156;-45
2022/08/18 06:35:07;;;;;;;37.43;33.53;;;24.60;62.20;25.20;100545.00;;;;5007331;28;20156;-45
2022/08/18 06:38:37;;;;;;;38.83;34.80;;;24.60;62.90;25.20;100558.00;;;;5007108;28;20265;-45
2022/08/18 06:40:27;;;;;;;38.27;34.27;;;24.60;62.90;25.20;100553.00;;;;5018512;28;20203;-45
2022/08/18 06:42:53;;;;;;;36.87;33.00;;;24.60;62.90;25.20;100565.00;;;;5007091;28;20194;-45
2022/08/18 06:45:31;;;;;;;39.80;35.50;;;24.60;63.30;25.20;100560.00;;;;5006804;28;20199;-44
2022/08/18 06:48:11;;;;;;;36.03;32.23;;;24.50;63.80;25.20;100538.00;;;;5020095;28;20290;-44
2022/08/18 06:50:59;;;;;;;38.13;34.23;;;24.50;63.30;25.20;100554.00;;;;5021738;28;20643;-44
2022/08/18 06:54:02;;;;;;;36.33;32.57;;;24.40;63.90;25.20;100543.00;;;;5005801;28;20195;-44
2022/08/18 06:56:38;;;;;;;35.63;31.47;;;24.50;63.60;25.20;100552.00;;;;5021582;28;20163;-45
2022/08/18 06:59:21;;;;;;;31.57;28.23;;;24.50;63.30;25.00;100560.00;;;;5006792;28;20176;-45
2022/08/18 07:01:52;;;;;;;31.27;28.03;;;24.50;62.80;25.20;100553.00;;;;5006488;28;20671;-44
2022/08/18 07:05:13;;;;;;;30.57;27.47;;;24.50;62.50;25.20;100555.00;;;;5021363;28;20160;-45
2022/08/18 07:07:40;;;;;;;34.77;31.17;;;24.50;62.10;25.20;100553.00;;;;4997240;28;20218;-44
2022/08/18 07:10:13;;;;;;;38.03;34.20;;;24.50;63.00;25.20;100559.00;;;;5006141;28;20175;-44
2022/08/18 07:12:39;;;;;;;37.77;33.83;;;24.50;63.30;25.20;100543.00;;;;5020837;28;20186;-44
2022/08/18 07:15:07;;;;;;;33.23;29.73;;;24.50;63.30;25.20;100544.00;;;;5006717;28;20862;-44
2022/08/18 07:17:38;;;;;;;31.97;28.67;;;24.50;62.60;25.20;100548.00;;;;5021450;28;20762;-45
2022/08/18 07:20:09;;;;;;;32.60;29.30;;;24.50;62.30;25.20;100554.00;;;;5006612;28;20230;-45
2022/08/18 07:23:00;;;;;;;30.83;27.70;;;24.50;62.30;25.20;100552.00;;;;5006258;28;20176;-44
2022/08/18 07:25:37;;;;;;;32.27;28.90;;;24.50;62.30;25.20;100545.00;;;;5021677;28;20191;-48
2022/08/18 07:28:03;;;;;;;30.13;27.03;;;24.50;62.50;25.20;100544.00;;;;5021119;28;20769;-45
2022/08/18 07:30:36;;;;;;;31.27;28.07;;;24.50;62.10;25.20;100540.00;;;;5006416;28;20183;-44
2022/08/18 07:33:21;;;;;;;30.77;27.50;;;24.50;62.60;25.20;100536.00;;;;5021400;28;20179;-44
2022/08/18 07:35:55;;;;;;;28.73;25.90;;;24.50;62.50;25.20;100524.00;;;;5021518;28;20176;-44
2022/08/18 07:38:41;;;;;;;28.60;25.60;;;24.50;62.30;25.20;100531.00;;;;5020289;28;20681;-44
2022/08/18 07:41:25;;;;;;;27.33;24.63;;;24.50;62.20;25.20;100523.00;;;;5018652;28;20218;-43
2022/08/18 07:44:32;;;;;;;28.73;25.90;;;24.50;62.40;25.20;100526.00;;;;5020517;28;20221;-44
2022/08/18 07:47:17;;;;;;;32.80;29.33;;;24.50;62.90;25.20;100528.00;;;;5019050;28;20245;-44
2022/08/18 07:49:43;;;;;;;31.73;28.63;;;24.50;64.10;25.20;100530.00;;;;5019313;28;20176;-43
2022/08/18 07:52:29;;;;;;;31.23;28.07;;;24.50;64.10;25.20;100532.00;;;;5021194;28;20267;-43
2022/08/18 07:55:25;;;;;;;27.47;24.77;;;24.50;63.80;25.10;100534.00;;;;5019668;28;20181;-44
2022/08/18 07:58:33;;;;;;;33.97;30.50;;;24.50;63.30;25.10;100544.00;;;;5020783;28;20423;-45
2022/08/18 08:01:24;;;;;;;33.23;30.03;;;24.40;65.40;25.10;100542.00;;;;4990190;28;20297;-44
2022/08/18 08:04:13;;;;;;;30.93;27.93;;;24.40;65.70;25.10;100555.00;;;;5005956;28;20755;-44
2022/08/18 08:06:42;;;;;;;31.90;28.90;;;24.30;65.80;25.10;100552.00;;;;4934453;28;20186;-42
2022/08/18 08:09:25;;;;;;;32.33;29.13;;;24.30;66.20;25.10;100561.00;;;;5040610;28;20708;-43
2022/08/18 08:11:57;;;;;;;30.57;27.60;;;24.30;66.50;25.00;100557.00;;;;5035522;28;20250;-43
2022/08/18 08:14:42;;;;;;;31.43;28.43;;;24.30;66.30;25.00;100549.00;;;;5020485;28;20160;-44
2022/08/18 08:17:38;;;;;;;32.43;29.33;;;24.20;66.60;25.00;100551.00;;;;5005937;28;20223;-43
2022/08/18 08:20:24;;;;;;;31.80;28.80;;;24.20;67.30;24.90;100564.00;;;;5022923;28;20283;-45
2022/08/18 08:23:22;;;;;;;31.77;28.70;;;24.10;67.60;24.90;100557.00;;;;5009643;28;20164;-43
2022/08/18 08:26:24;;;;;;;30.37;27.40;;;24.10;67.30;24.90;100558.00;;;;5009989;28;20203;-44
2022/08/18 08:29:18;;;;;;;26.87;24.37;;;24.10;67.10;24.90;100558.00;;;;5008345;28;20195;-44
2022/08/18 08:32:05;;;;;;;24.43;22.13;;;24.20;66.20;24.90;100561.00;;;;5025639;28;20683;-45
2022/08/18 08:34:49;;;;;;;26.27;23.77;;;24.20;65.40;24.90;100559.00;;;;5024430;28;20160;-44
2022/08/18 08:37:31;;;;;;;26.27;23.87;;;24.30;65.70;25.00;100568.00;;;;5007831;28;20191;-45
2022/08/18 08:40:07;;;;;;;26.30;23.80;;;24.30;66.70;24.90;100564.00;;;;5008778;28;20563;-44
2022/08/18 08:42:51;;;;;;;26.10;23.70;;;24.30;65.20;25.00;100569.00;;;;5009028;28;20166;-44
2022/08/18 08:45:32;;;;;;;24.10;21.87;;;24.30;65.60;25.00;100578.00;;;;5025323;28;20205;-44
2022/08/18 08:48:06;;;;;;;21.67;19.77;;;24.30;65.20;25.00;100570.00;;;;5027619;28;20206;-44
2022/08/18 08:50:46;;;;;;;22.17;20.10;;;24.30;64.70;25.00;100575.00;;;;5028261;28;20246;-44
2022/08/18 08:53:33;;;;;;;21.03;18.90;;;24.40;64.70;25.00;100578.00;;;;5027988;28;20179;-44
2022/08/18 08:56:05;;;;;;;21.20;19.23;;;24.30;64.30;25.00;100568.00;;;;5044156;28;20266;-44
2022/08/18 08:58:48;;;;;;;22.90;20.60;;;24.40;64.40;25.00;100561.00;;;;5027509;28;20194;-44
2022/08/18 09:01:41;;;;;;;23.53;21.43;;;24.40;64.60;25.00;100588.00;;;;5019828;28;20195;-44
2022/08/18 09:04:20;;;;;;;20.73;18.83;;;24.40;65.00;25.00;100593.00;;;;5021773;28;20194;-44
2022/08/18 09:07:27;;;;;;;24.30;22.20;;;24.40;64.90;25.00;100582.00;;;;4974259;28;20720;-45
2022/08/18 09:10:08;;;;;;;20.47;18.67;;;24.40;66.10;25.00;100577.00;;;;5028374;28;20181;-44
2022/08/18 09:12:57;;;;;;;17.63;15.97;;;24.40;65.10;25.00;100572.00;;;;5028592;28;20171;-44
2022/08/18 09:15:29;;;;;;;16.70;15.20;;;24.40;64.50;25.00;100559.00;;;;5028902;28;20202;-44
2022/08/18 09:18:25;;;;;;;17.53;15.83;;;24.40;64.30;24.90;100567.00;;;;5028821;28;20195;-44
2022/08/18 09:21:18;;;;;;;18.17;16.50;;;24.40;64.10;24.90;100558.00;;;;5027892;28;20217;-45
2022/08/18 09:23:47;;;;;;;19.97;17.70;;;24.40;64.40;24.90;100560.00;;;;5028921;28;20251;-44
2022/08/18 09:26:31;;;;;;;20.03;18.03;;;24.40;64.80;24.90;100569.00;;;;5043825;28;20206;-44
2022/08/18 09:29:23;;;;;;;16.30;14.80;;;24.30;65.10;24.90;100558.00;;;;5028238;28;20229;-44
2022/08/18 09:32:17;;;;;;;16.43;14.80;;;24.30;64.70;24.90;100551.00;;;;5042653;28;20155;-44
2022/08/18 09:35:22;;;;;;;21.97;19.90;;;24.30;64.50;24.90;100557.00;;;;5026097;28;20225;-44
2022/08/18 09:44:08;;;;;;;17.70;16.13;;;24.40;65.30;24.90;100560.00;;;;5023135;28;20930;-44
2022/08/18 09:46:43;;;;;;;16.70;15.23;;;24.40;65.20;24.90;100563.00;;;;5008361;28;20195;-43
2022/08/18 09:49:24;;;;;;;16.40;14.90;;;24.40;65.40;24.90;100561.00;;;;5008758;28;20258;-45
2022/08/18 09:51:58;;;;;;;19.87;18.13;;;24.40;65.40;24.90;100554.00;;;;5008511;28;20180;-45
2022/08/18 09:54:29;;;;;;;16.23;14.80;;;24.40;65.60;24.90;100560.00;;;;5023658;28;20449;-44
2022/08/18 09:57:20;;;;;;;17.80;16.30;;;24.40;64.80;24.70;100567.00;;;;5023128;28;20195;-45
2022/08/18 09:59:48;;;;;;;19.23;17.37;;;24.40;65.90;24.90;100564.00;;;;5006848;28;20191;-44
2022/08/18 10:02:29;;;;;;;16.17;14.73;;;24.30;65.50;24.90;100571.00;;;;5008370;28;20533;-44
2022/08/18 10:05:16;;;;;;;17.77;16.23;;;24.30;64.70;24.90;100574.00;;;;5008368;28;20167;-44
2022/08/18 10:08:04;;;;;;;16.10;14.70;;;24.40;64.70;25.00;100570.00;;;;5007898;28;20604;-44
2022/08/18 10:10:41;;;;;;;14.23;13.03;;;24.40;64.50;25.00;100579.00;;;;5008028;28;20234;-44
2022/08/18 10:13:28;;;;;;;13.30;12.07;;;24.40;63.90;25.00;100558.00;;;;5022545;28;20194;-44
2022/08/18 10:16:08;;;;;;;12.90;11.80;;;24.40;63.50;25.00;100571.00;;;;5022776;28;20172;-45
2022/08/18 10:19:19;;;;;;;19.30;17.50;;;24.40;63.40;25.00;100566.00;;;;5007694;28;20639;-45
2022/08/18 10:22:01;;;;;;;17.27;15.77;;;24.40;64.10;25.00;100549.00;;;;5005806;28;20458;-44
2022/08/18 10:24:43;;;;;;;18.23;16.63;;;24.40;63.70;25.00;100562.00;;;;5022632;28;20175;-44
2022/08/18 10:27:30;;;;;;;19.83;18.03;;;24.50;64.20;25.00;100557.00;;;;5021455;28;20203;-42
2022/08/18 10:29:56;;;;;;;19.10;17.43;;;24.40;65.40;25.00;100554.00;;;;5020133;28;20174;-43
2022/08/18 10:32:34;;;;;;;16.80;15.30;;;24.40;65.00;25.00;100548.00;;;;5007303;28;20184;-43
2022/08/18 10:35:00;;;;;;;16.73;15.23;;;24.40;65.30;25.00;100546.00;;;;5007681;28;20163;-43
2022/08/18 10:37:34;;;;;;;13.07;11.97;;;24.40;63.90;25.00;100546.00;;;;5022544;28;20924;-42
2022/08/18 10:40:09;;;;;;;13.27;11.23;;;24.40;63.70;25.00;100541.00;;;;5022408;28;20196;-44
2022/08/18 10:42:56;;;;;;;12.43;11.23;;;24.40;63.70;25.00;100539.00;;;;5007690;28;20187;-43
2022/08/18 10:45:31;;;;;;;14.27;12.73;;;24.40;63.70;25.10;100550.00;;;;5019957;28;20183;-43
2022/08/18 10:48:03;;;;;;;19.00;17.30;;;24.40;63.80;25.10;100542.00;;;;5021431;28;20587;-43
2022/08/18 10:50:34;;;;;;;15.30;14.00;;;24.40;64.90;25.10;100536.00;;;;5007744;28;20179;-44
2022/08/18 10:53:30;;;;;;;15.10;13.53;;;24.40;64.30;25.10;100545.00;;;;5022691;28;20195;-43
2022/08/18 10:56:18;;;;;;;13.00;11.80;;;24.50;64.10;25.10;100519.00;;;;5019807;28;20666;-43
2022/08/18 10:59:15;;;;;;;15.47;14.17;;;24.40;63.60;25.10;100537.00;;;;4978561;28;20201;-44
2022/08/18 11:02:10;;;;;;;16.57;15.23;;;24.50;64.10;25.10;100528.00;;;;5040245;28;20194;-44
2022/08/18 11:04:47;;;;;;;17.40;15.90;;;24.50;64.60;25.10;100527.00;;;;5030134;28;20210;-44
2022/08/18 11:07:28;;;;;;;15.23;13.93;;;24.50;64.10;25.10;100522.00;;;;5025262;28;20618;-43
2022/08/18 11:09:56;;;;;;;17.93;16.33;;;24.50;64.10;25.10;100515.00;;;;5025675;28;20300;-44
2022/08/18 11:12:59;;;;;;;18.80;17.00;;;24.40;64.60;25.10;100519.00;;;;5025224;28;20179;-42
2022/08/18 11:16:18;;;;;;;16.77;15.37;;;24.40;64.20;25.10;100518.00;;;;5021829;28;20198;-45
2022/08/18 11:18:48;;;;;;;17.93;16.37;;;24.50;64.60;25.10;100517.00;;;;5025926;28;20191;-44
2022/08/18 11:21:36;;;;;;;17.73;16.13;;;24.50;64.60;25.10;100517.00;;;;5024791;28;20637;-43
2022/08/18 11:24:10;;;;;;;15.07;13.70;;;24.60;64.30;25.10;100521.00;;;;5026275;28;20708;-43
2022/08/18 11:26:57;;;;;;;15.63;14.20;;;24.50;64.00;25.10;100518.00;;;;5026255;28;20210;-43
2022/08/18 11:29:27;;;;;;;14.67;13.37;;;24.40;63.90;25.20;100519.00;;;;5024888;28;20694;-43